sensor_id;sensor_type;location;lat;lon;timestamp;P1;durP1;ratioP1;P2;durP2;ratioP2
5052;SDS011;2545;50.892;5.740;2023-04-15T00:00:52;12.23;;;4.73;;
5052;SDS011;2545;50.892;5.740;2023-04-15T00:03:17;6.67;;;3.90;;
5052;SDS011;2545;50.892;5.740;2023-04-15T00:05:43;7.87;;;4.03;;
5052;SDS011;2545;50.892;5.740;2023-04-15T00:08:08;8.50;;;4.70;;
5052;SDS011;2545;50.892;5.740;2023-04-15T00:10:34;7.97;;;4.20;;
5052;SDS011;2545;50.892;5.740;2023-04-15T00:12:59;6.97;;;4.17;;
5052;SDS011;2545;50.892;5.740;2023-04-15T00:15:25;7.27;;;3.50;;
5052;SDS011;2545;50.892;5.740;2023-04-15T00:17:51;9.30;;;3.90;;
5052;SDS011;2545;50.892;5.740;2023-04-15T00:20:16;7.20;;;4.10;;
5052;SDS011;2545;50.892;5.740;2023-04-15T00:22:42;7.13;;;3.60;;
5052;SDS011;2545;50.892;5.740;2023-04-15T00:25:07;5.67;;;3.57;;
5052;SDS011;2545;50.892;5.740;2023-04-15T00:27:33;9.10;;;4.67;;
5052;SDS011;2545;50.892;5.740;2023-04-15T00:29:59;5.30;;;3.63;;
5052;SDS011;2545;50.892;5.740;2023-04-15T00:32:24;8.37;;;4.23;;
5052;SDS011;2545;50.892;5.740;2023-04-15T00:34:49;9.00;;;3.50;;
5052;SDS011;2545;50.892;5.740;2023-04-15T00:37:15;5.30;;;3.90;;
5052;SDS011;2545;50.892;5.740;2023-04-15T00:39:40;11.80;;;3.60;;
5052;SDS011;2545;50.892;5.740;2023-04-15T00:42:05;7.53;;;3.40;;
5052;SDS011;2545;50.892;5.740;2023-04-15T00:44:31;7.87;;;4.17;;
5052;SDS011;2545;50.892;5.740;2023-04-15T00:46:57;6.77;;;3.20;;
5052;SDS011;2545;50.892;5.740;2023-04-15T00:49:23;8.73;;;3.80;;
5052;SDS011;2545;50.892;5.740;2023-04-15T00:51:48;10.97;;;5.33;;
5052;SDS011;2545;50.892;5.740;2023-04-15T00:54:14;8.30;;;4.03;;
5052;SDS011;2545;50.892;5.740;2023-04-15T00:56:40;8.43;;;3.30;;
5052;SDS011;2545;50.892;5.740;2023-04-15T00:59:06;11.40;;;4.00;;
5052;SDS011;2545;50.892;5.740;2023-04-15T01:01:35;6.40;;;4.33;;
5052;SDS011;2545;50.892;5.740;2023-04-15T01:04:01;5.90;;;3.53;;
5052;SDS011;2545;50.892;5.740;2023-04-15T01:06:27;7.70;;;3.80;;
5052;SDS011;2545;50.892;5.740;2023-04-15T01:08:53;5.53;;;4.10;;
5052;SDS011;2545;50.892;5.740;2023-04-15T01:11:19;9.17;;;4.47;;
5052;SDS011;2545;50.892;5.740;2023-04-15T01:13:45;8.60;;;3.93;;
5052;SDS011;2545;50.892;5.740;2023-04-15T01:16:11;9.83;;;3.70;;
5052;SDS011;2545;50.892;5.740;2023-04-15T01:18:38;14.20;;;4.07;;
5052;SDS011;2545;50.892;5.740;2023-04-15T01:21:04;7.13;;;3.57;;
5052;SDS011;2545;50.892;5.740;2023-04-15T01:23:32;8.50;;;3.80;;
5052;SDS011;2545;50.892;5.740;2023-04-15T01:26:04;10.03;;;3.93;;
5052;SDS011;2545;50.892;5.740;2023-04-15T01:28:31;12.60;;;4.67;;
5052;SDS011;2545;50.892;5.740;2023-04-15T01:31:06;6.80;;;3.93;;
5052;SDS011;2545;50.892;5.740;2023-04-15T01:33:33;11.00;;;4.60;;
5052;SDS011;2545;50.892;5.740;2023-04-15T01:35:58;4.40;;;3.43;;
5052;SDS011;2545;50.892;5.740;2023-04-15T01:38:25;7.70;;;4.27;;
5052;SDS011;2545;50.892;5.740;2023-04-15T01:40:51;8.60;;;3.90;;
5052;SDS011;2545;50.892;5.740;2023-04-15T01:43:17;7.47;;;4.07;;
5052;SDS011;2545;50.892;5.740;2023-04-15T01:45:43;4.40;;;3.53;;
5052;SDS011;2545;50.892;5.740;2023-04-15T01:48:08;13.17;;;4.07;;
5052;SDS011;2545;50.892;5.740;2023-04-15T01:50:33;7.53;;;4.67;;
5052;SDS011;2545;50.892;5.740;2023-04-15T01:53:00;7.20;;;4.43;;
5052;SDS011;2545;50.892;5.740;2023-04-15T01:55:26;9.37;;;5.47;;
5052;SDS011;2545;50.892;5.740;2023-04-15T01:57:51;7.60;;;4.40;;
5052;SDS011;2545;50.892;5.740;2023-04-15T02:00:16;9.23;;;5.07;;
5052;SDS011;2545;50.892;5.740;2023-04-15T02:02:42;11.07;;;4.87;;
5052;SDS011;2545;50.892;5.740;2023-04-15T02:05:07;10.30;;;5.00;;
5052;SDS011;2545;50.892;5.740;2023-04-15T02:07:33;10.97;;;4.40;;
5052;SDS011;2545;50.892;5.740;2023-04-15T02:09:58;8.27;;;5.07;;
5052;SDS011;2545;50.892;5.740;2023-04-15T02:12:24;12.53;;;4.97;;
5052;SDS011;2545;50.892;5.740;2023-04-15T02:14:49;10.83;;;4.57;;
5052;SDS011;2545;50.892;5.740;2023-04-15T02:17:15;5.53;;;4.27;;
5052;SDS011;2545;50.892;5.740;2023-04-15T02:19:40;6.37;;;4.50;;
5052;SDS011;2545;50.892;5.740;2023-04-15T02:22:05;8.37;;;4.70;;
5052;SDS011;2545;50.892;5.740;2023-04-15T02:24:33;7.50;;;4.77;;
5052;SDS011;2545;50.892;5.740;2023-04-15T02:26:58;12.57;;;4.90;;
5052;SDS011;2545;50.892;5.740;2023-04-15T02:29:25;12.20;;;4.97;;
5052;SDS011;2545;50.892;5.740;2023-04-15T02:31:50;7.70;;;4.10;;
5052;SDS011;2545;50.892;5.740;2023-04-15T02:34:15;7.70;;;4.53;;
5052;SDS011;2545;50.892;5.740;2023-04-15T02:36:41;15.43;;;4.53;;
5052;SDS011;2545;50.892;5.740;2023-04-15T02:39:06;12.43;;;5.00;;
5052;SDS011;2545;50.892;5.740;2023-04-15T02:41:31;7.23;;;4.67;;
5052;SDS011;2545;50.892;5.740;2023-04-15T02:43:57;5.93;;;4.03;;
5052;SDS011;2545;50.892;5.740;2023-04-15T02:46:22;8.00;;;5.10;;
5052;SDS011;2545;50.892;5.740;2023-04-15T02:48:48;10.50;;;4.87;;
5052;SDS011;2545;50.892;5.740;2023-04-15T02:51:17;5.30;;;4.10;;
5052;SDS011;2545;50.892;5.740;2023-04-15T02:53:45;10.90;;;5.40;;
5052;SDS011;2545;50.892;5.740;2023-04-15T02:56:11;8.97;;;4.80;;
5052;SDS011;2545;50.892;5.740;2023-04-15T02:58:36;13.70;;;6.23;;
5052;SDS011;2545;50.892;5.740;2023-04-15T03:01:03;9.73;;;5.20;;
5052;SDS011;2545;50.892;5.740;2023-04-15T03:03:28;8.57;;;4.27;;
5052;SDS011;2545;50.892;5.740;2023-04-15T03:05:54;6.67;;;4.50;;
5052;SDS011;2545;50.892;5.740;2023-04-15T03:08:19;5.70;;;4.43;;
5052;SDS011;2545;50.892;5.740;2023-04-15T03:10:47;11.00;;;4.53;;
5052;SDS011;2545;50.892;5.740;2023-04-15T03:13:12;8.20;;;4.60;;
5052;SDS011;2545;50.892;5.740;2023-04-15T03:15:38;9.20;;;4.40;;
5052;SDS011;2545;50.892;5.740;2023-04-15T03:18:03;8.70;;;5.00;;
5052;SDS011;2545;50.892;5.740;2023-04-15T03:20:28;10.17;;;4.30;;
5052;SDS011;2545;50.892;5.740;2023-04-15T03:22:53;10.20;;;5.00;;
5052;SDS011;2545;50.892;5.740;2023-04-15T03:25:19;11.13;;;5.70;;
5052;SDS011;2545;50.892;5.740;2023-04-15T03:27:44;8.27;;;4.43;;
5052;SDS011;2545;50.892;5.740;2023-04-15T03:30:10;7.17;;;4.63;;
5052;SDS011;2545;50.892;5.740;2023-04-15T03:32:36;12.60;;;5.20;;
5052;SDS011;2545;50.892;5.740;2023-04-15T03:35:01;6.80;;;3.90;;
5052;SDS011;2545;50.892;5.740;2023-04-15T03:37:27;6.90;;;4.40;;
5052;SDS011;2545;50.892;5.740;2023-04-15T03:39:52;5.97;;;4.70;;
5052;SDS011;2545;50.892;5.740;2023-04-15T03:42:17;7.43;;;4.80;;
5052;SDS011;2545;50.892;5.740;2023-04-15T03:44:42;6.60;;;4.67;;
5052;SDS011;2545;50.892;5.740;2023-04-15T03:47:08;5.90;;;4.30;;
5052;SDS011;2545;50.892;5.740;2023-04-15T03:49:33;13.83;;;5.23;;
5052;SDS011;2545;50.892;5.740;2023-04-15T03:51:59;8.43;;;4.87;;
5052;SDS011;2545;50.892;5.740;2023-04-15T03:54:24;4.97;;;4.03;;
5052;SDS011;2545;50.892;5.740;2023-04-15T03:56:50;6.50;;;4.23;;
5052;SDS011;2545;50.892;5.740;2023-04-15T03:59:15;12.70;;;4.47;;
5052;SDS011;2545;50.892;5.740;2023-04-15T04:01:41;7.60;;;4.83;;
5052;SDS011;2545;50.892;5.740;2023-04-15T04:04:06;10.50;;;4.80;;
5052;SDS011;2545;50.892;5.740;2023-04-15T04:06:31;9.07;;;5.47;;
5052;SDS011;2545;50.892;5.740;2023-04-15T04:08:57;9.87;;;5.70;;
5052;SDS011;2545;50.892;5.740;2023-04-15T04:11:22;6.43;;;5.17;;
5052;SDS011;2545;50.892;5.740;2023-04-15T04:13:47;7.23;;;4.40;;
5052;SDS011;2545;50.892;5.740;2023-04-15T04:16:13;35.20;;;5.80;;
5052;SDS011;2545;50.892;5.740;2023-04-15T04:18:38;8.83;;;5.07;;
5052;SDS011;2545;50.892;5.740;2023-04-15T04:21:03;7.40;;;4.50;;
5052;SDS011;2545;50.892;5.740;2023-04-15T04:23:29;7.30;;;5.10;;
5052;SDS011;2545;50.892;5.740;2023-04-15T04:25:54;9.00;;;5.33;;
5052;SDS011;2545;50.892;5.740;2023-04-15T04:28:20;16.77;;;4.50;;
5052;SDS011;2545;50.892;5.740;2023-04-15T04:30:46;8.33;;;4.30;;
5052;SDS011;2545;50.892;5.740;2023-04-15T04:33:11;10.40;;;4.67;;
5052;SDS011;2545;50.892;5.740;2023-04-15T04:35:37;9.20;;;5.47;;
5052;SDS011;2545;50.892;5.740;2023-04-15T04:38:02;5.33;;;4.40;;
5052;SDS011;2545;50.892;5.740;2023-04-15T04:40:28;8.90;;;5.60;;
5052;SDS011;2545;50.892;5.740;2023-04-15T04:42:53;6.87;;;5.43;;
5052;SDS011;2545;50.892;5.740;2023-04-15T04:45:19;6.40;;;5.17;;
5052;SDS011;2545;50.892;5.740;2023-04-15T04:47:44;14.20;;;6.40;;
5052;SDS011;2545;50.892;5.740;2023-04-15T04:50:11;8.23;;;4.60;;
5052;SDS011;2545;50.892;5.740;2023-04-15T04:52:37;12.43;;;5.73;;
5052;SDS011;2545;50.892;5.740;2023-04-15T04:55:02;11.70;;;5.53;;
5052;SDS011;2545;50.892;5.740;2023-04-15T04:57:28;9.13;;;4.70;;
5052;SDS011;2545;50.892;5.740;2023-04-15T04:59:53;7.57;;;5.03;;
5052;SDS011;2545;50.892;5.740;2023-04-15T05:02:19;10.30;;;4.60;;
5052;SDS011;2545;50.892;5.740;2023-04-15T05:04:44;11.23;;;4.70;;
5052;SDS011;2545;50.892;5.740;2023-04-15T05:07:09;8.10;;;5.30;;
5052;SDS011;2545;50.892;5.740;2023-04-15T05:09:35;8.63;;;4.60;;
5052;SDS011;2545;50.892;5.740;2023-04-15T05:12:01;8.33;;;4.60;;
5052;SDS011;2545;50.892;5.740;2023-04-15T05:14:27;8.50;;;4.70;;
5052;SDS011;2545;50.892;5.740;2023-04-15T05:16:53;12.23;;;4.10;;
5052;SDS011;2545;50.892;5.740;2023-04-15T05:19:18;7.17;;;3.70;;
5052;SDS011;2545;50.892;5.740;2023-04-15T05:21:43;10.03;;;4.57;;
5052;SDS011;2545;50.892;5.740;2023-04-15T05:24:09;9.20;;;4.57;;
5052;SDS011;2545;50.892;5.740;2023-04-15T05:26:34;7.60;;;4.30;;
5052;SDS011;2545;50.892;5.740;2023-04-15T05:28:59;7.20;;;4.37;;
5052;SDS011;2545;50.892;5.740;2023-04-15T05:31:25;5.73;;;4.20;;
5052;SDS011;2545;50.892;5.740;2023-04-15T05:33:50;7.67;;;3.80;;
5052;SDS011;2545;50.892;5.740;2023-04-15T05:36:16;13.37;;;4.70;;
5052;SDS011;2545;50.892;5.740;2023-04-15T05:38:41;5.27;;;4.57;;
5052;SDS011;2545;50.892;5.740;2023-04-15T05:41:06;5.67;;;3.70;;
5052;SDS011;2545;50.892;5.740;2023-04-15T05:43:32;7.23;;;3.50;;
5052;SDS011;2545;50.892;5.740;2023-04-15T05:45:58;9.43;;;3.73;;
5052;SDS011;2545;50.892;5.740;2023-04-15T05:48:23;5.63;;;3.53;;
5052;SDS011;2545;50.892;5.740;2023-04-15T05:50:48;10.63;;;3.73;;
5052;SDS011;2545;50.892;5.740;2023-04-15T05:53:14;7.67;;;2.93;;
5052;SDS011;2545;50.892;5.740;2023-04-15T05:55:39;6.67;;;3.70;;
5052;SDS011;2545;50.892;5.740;2023-04-15T05:58:05;7.40;;;3.30;;
5052;SDS011;2545;50.892;5.740;2023-04-15T06:00:31;9.70;;;4.10;;
5052;SDS011;2545;50.892;5.740;2023-04-15T06:02:56;6.77;;;4.13;;
5052;SDS011;2545;50.892;5.740;2023-04-15T06:05:22;6.43;;;3.67;;
5052;SDS011;2545;50.892;5.740;2023-04-15T06:07:48;9.10;;;4.10;;
5052;SDS011;2545;50.892;5.740;2023-04-15T06:10:14;9.23;;;4.50;;
5052;SDS011;2545;50.892;5.740;2023-04-15T06:12:39;14.80;;;4.63;;
5052;SDS011;2545;50.892;5.740;2023-04-15T06:15:05;8.40;;;3.80;;
5052;SDS011;2545;50.892;5.740;2023-04-15T06:17:31;11.53;;;3.77;;
5052;SDS011;2545;50.892;5.740;2023-04-15T06:19:56;11.20;;;4.10;;
5052;SDS011;2545;50.892;5.740;2023-04-15T06:22:23;8.50;;;4.10;;
5052;SDS011;2545;50.892;5.740;2023-04-15T06:24:48;9.10;;;4.27;;
5052;SDS011;2545;50.892;5.740;2023-04-15T06:27:15;23.90;;;5.53;;
5052;SDS011;2545;50.892;5.740;2023-04-15T06:29:41;18.03;;;4.93;;
5052;SDS011;2545;50.892;5.740;2023-04-15T06:32:06;9.73;;;4.60;;
5052;SDS011;2545;50.892;5.740;2023-04-15T06:34:31;14.80;;;4.87;;
5052;SDS011;2545;50.892;5.740;2023-04-15T06:36:57;10.93;;;4.70;;
5052;SDS011;2545;50.892;5.740;2023-04-15T06:39:22;10.10;;;5.53;;
5052;SDS011;2545;50.892;5.740;2023-04-15T06:41:47;11.83;;;5.80;;
5052;SDS011;2545;50.892;5.740;2023-04-15T06:44:12;10.93;;;5.80;;
5052;SDS011;2545;50.892;5.740;2023-04-15T06:46:38;11.40;;;5.50;;
5052;SDS011;2545;50.892;5.740;2023-04-15T06:49:03;13.50;;;5.90;;
5052;SDS011;2545;50.892;5.740;2023-04-15T06:51:29;11.10;;;5.73;;
5052;SDS011;2545;50.892;5.740;2023-04-15T06:53:55;15.10;;;5.90;;
5052;SDS011;2545;50.892;5.740;2023-04-15T06:56:20;7.87;;;4.70;;
5052;SDS011;2545;50.892;5.740;2023-04-15T06:58:47;14.10;;;5.47;;
5052;SDS011;2545;50.892;5.740;2023-04-15T07:01:12;23.60;;;5.73;;
5052;SDS011;2545;50.892;5.740;2023-04-15T07:03:38;7.70;;;5.00;;
5052;SDS011;2545;50.892;5.740;2023-04-15T07:06:03;10.60;;;5.90;;
5052;SDS011;2545;50.892;5.740;2023-04-15T07:08:31;14.47;;;6.80;;
5052;SDS011;2545;50.892;5.740;2023-04-15T07:10:57;15.17;;;6.50;;
5052;SDS011;2545;50.892;5.740;2023-04-15T07:13:23;10.60;;;5.53;;
5052;SDS011;2545;50.892;5.740;2023-04-15T07:15:49;15.30;;;5.83;;
5052;SDS011;2545;50.892;5.740;2023-04-15T07:18:14;7.70;;;5.40;;
5052;SDS011;2545;50.892;5.740;2023-04-15T07:20:39;8.83;;;5.27;;
5052;SDS011;2545;50.892;5.740;2023-04-15T07:23:05;9.63;;;5.70;;
5052;SDS011;2545;50.892;5.740;2023-04-15T07:25:31;12.93;;;5.90;;
5052;SDS011;2545;50.892;5.740;2023-04-15T07:27:56;8.07;;;5.50;;
5052;SDS011;2545;50.892;5.740;2023-04-15T07:30:22;8.50;;;6.27;;
5052;SDS011;2545;50.892;5.740;2023-04-15T07:32:47;16.20;;;6.23;;
5052;SDS011;2545;50.892;5.740;2023-04-15T07:35:13;9.63;;;6.17;;
5052;SDS011;2545;50.892;5.740;2023-04-15T07:37:38;10.67;;;6.20;;
5052;SDS011;2545;50.892;5.740;2023-04-15T07:40:04;10.70;;;7.27;;
5052;SDS011;2545;50.892;5.740;2023-04-15T07:42:31;12.70;;;7.80;;
5052;SDS011;2545;50.892;5.740;2023-04-15T07:44:58;13.40;;;7.13;;
5052;SDS011;2545;50.892;5.740;2023-04-15T07:47:23;14.20;;;7.77;;
5052;SDS011;2545;50.892;5.740;2023-04-15T07:49:48;15.33;;;7.87;;
5052;SDS011;2545;50.892;5.740;2023-04-15T07:52:15;19.33;;;7.57;;
5052;SDS011;2545;50.892;5.740;2023-04-15T07:54:40;10.63;;;7.50;;
5052;SDS011;2545;50.892;5.740;2023-04-15T07:57:06;11.03;;;7.63;;
5052;SDS011;2545;50.892;5.740;2023-04-15T07:59:31;13.53;;;7.63;;
5052;SDS011;2545;50.892;5.740;2023-04-15T08:01:57;14.77;;;8.67;;
5052;SDS011;2545;50.892;5.740;2023-04-15T08:04:23;12.83;;;7.97;;
5052;SDS011;2545;50.892;5.740;2023-04-15T08:06:48;21.13;;;7.70;;
5052;SDS011;2545;50.892;5.740;2023-04-15T08:09:14;16.00;;;9.10;;
5052;SDS011;2545;50.892;5.740;2023-04-15T08:11:40;17.70;;;9.13;;
5052;SDS011;2545;50.892;5.740;2023-04-15T08:14:06;21.40;;;8.20;;
5052;SDS011;2545;50.892;5.740;2023-04-15T08:16:31;13.00;;;9.53;;
5052;SDS011;2545;50.892;5.740;2023-04-15T08:18:57;14.27;;;8.50;;
5052;SDS011;2545;50.892;5.740;2023-04-15T08:21:22;21.63;;;10.33;;
5052;SDS011;2545;50.892;5.740;2023-04-15T08:23:49;15.47;;;10.57;;
5052;SDS011;2545;50.892;5.740;2023-04-15T08:26:16;16.50;;;10.60;;
5052;SDS011;2545;50.892;5.740;2023-04-15T08:28:43;15.83;;;9.60;;
5052;SDS011;2545;50.892;5.740;2023-04-15T08:31:09;16.50;;;10.70;;
5052;SDS011;2545;50.892;5.740;2023-04-15T08:33:35;19.40;;;10.47;;
5052;SDS011;2545;50.892;5.740;2023-04-15T08:36:00;15.47;;;10.30;;
5052;SDS011;2545;50.892;5.740;2023-04-15T08:38:26;15.67;;;9.70;;
5052;SDS011;2545;50.892;5.740;2023-04-15T08:40:51;14.70;;;9.93;;
5052;SDS011;2545;50.892;5.740;2023-04-15T08:43:26;13.00;;;9.43;;
5052;SDS011;2545;50.892;5.740;2023-04-15T08:45:54;17.03;;;9.37;;
5052;SDS011;2545;50.892;5.740;2023-04-15T08:48:20;18.60;;;9.50;;
5052;SDS011;2545;50.892;5.740;2023-04-15T08:50:46;16.60;;;9.23;;
5052;SDS011;2545;50.892;5.740;2023-04-15T08:53:13;14.30;;;9.67;;
5052;SDS011;2545;50.892;5.740;2023-04-15T08:55:41;15.87;;;9.80;;
5052;SDS011;2545;50.892;5.740;2023-04-15T08:58:11;13.73;;;10.07;;
5052;SDS011;2545;50.892;5.740;2023-04-15T09:00:38;16.53;;;8.77;;
5052;SDS011;2545;50.892;5.740;2023-04-15T09:03:05;10.10;;;7.10;;
5052;SDS011;2545;50.892;5.740;2023-04-15T09:05:34;9.70;;;7.30;;
5052;SDS011;2545;50.892;5.740;2023-04-15T09:08:00;12.07;;;8.37;;
5052;SDS011;2545;50.892;5.740;2023-04-15T09:10:26;9.70;;;7.63;;
5052;SDS011;2545;50.892;5.740;2023-04-15T09:12:52;10.47;;;7.47;;
5052;SDS011;2545;50.892;5.740;2023-04-15T09:15:18;15.00;;;7.13;;
5052;SDS011;2545;50.892;5.740;2023-04-15T09:17:44;14.37;;;7.80;;
5052;SDS011;2545;50.892;5.740;2023-04-15T09:20:13;13.10;;;8.53;;
5052;SDS011;2545;50.892;5.740;2023-04-15T09:22:41;14.90;;;8.43;;
5052;SDS011;2545;50.892;5.740;2023-04-15T09:27:46;12.90;;;7.30;;
5052;SDS011;2545;50.892;5.740;2023-04-15T09:30:22;8.53;;;6.40;;
5052;SDS011;2545;50.892;5.740;2023-04-15T09:32:58;11.03;;;6.50;;
5052;SDS011;2545;50.892;5.740;2023-04-15T09:35:34;8.77;;;6.23;;
5052;SDS011;2545;50.892;5.740;2023-04-15T09:38:04;9.23;;;5.47;;
5052;SDS011;2545;50.892;5.740;2023-04-15T09:40:32;8.70;;;6.10;;
5052;SDS011;2545;50.892;5.740;2023-04-15T09:42:58;9.13;;;5.43;;
5052;SDS011;2545;50.892;5.740;2023-04-15T09:45:25;8.00;;;5.20;;
5052;SDS011;2545;50.892;5.740;2023-04-15T09:47:51;9.57;;;5.53;;
5052;SDS011;2545;50.892;5.740;2023-04-15T09:50:17;8.47;;;5.80;;
5052;SDS011;2545;50.892;5.740;2023-04-15T09:52:43;9.60;;;6.00;;
5052;SDS011;2545;50.892;5.740;2023-04-15T09:55:09;7.10;;;4.90;;
5052;SDS011;2545;50.892;5.740;2023-04-15T09:57:36;10.70;;;6.60;;
5052;SDS011;2545;50.892;5.740;2023-04-15T10:00:04;11.20;;;6.10;;
5052;SDS011;2545;50.892;5.740;2023-04-15T10:02:32;7.70;;;5.67;;
5052;SDS011;2545;50.892;5.740;2023-04-15T10:04:57;10.00;;;5.53;;
5052;SDS011;2545;50.892;5.740;2023-04-15T10:07:24;8.97;;;5.17;;
5052;SDS011;2545;50.892;5.740;2023-04-15T10:09:50;5.70;;;4.53;;
5052;SDS011;2545;50.892;5.740;2023-04-15T10:12:16;10.23;;;4.50;;
5052;SDS011;2545;50.892;5.740;2023-04-15T10:14:42;9.63;;;5.50;;
5052;SDS011;2545;50.892;5.740;2023-04-15T10:17:09;6.70;;;5.63;;
5052;SDS011;2545;50.892;5.740;2023-04-15T10:19:36;8.57;;;6.20;;
5052;SDS011;2545;50.892;5.740;2023-04-15T10:22:02;9.07;;;5.90;;
5052;SDS011;2545;50.892;5.740;2023-04-15T10:24:28;9.90;;;4.60;;
5052;SDS011;2545;50.892;5.740;2023-04-15T10:26:56;6.33;;;3.70;;
5052;SDS011;2545;50.892;5.740;2023-04-15T10:29:23;6.40;;;4.30;;
5052;SDS011;2545;50.892;5.740;2023-04-15T10:31:51;6.27;;;3.77;;
5052;SDS011;2545;50.892;5.740;2023-04-15T10:34:18;6.13;;;4.07;;
5052;SDS011;2545;50.892;5.740;2023-04-15T10:36:44;5.47;;;4.30;;
5052;SDS011;2545;50.892;5.740;2023-04-15T10:42:11;6.73;;;3.87;;
5052;SDS011;2545;50.892;5.740;2023-04-15T10:44:49;7.40;;;3.60;;
5052;SDS011;2545;50.892;5.740;2023-04-15T10:47:19;7.73;;;4.07;;
5052;SDS011;2545;50.892;5.740;2023-04-15T10:49:50;5.60;;;3.60;;
5052;SDS011;2545;50.892;5.740;2023-04-15T10:52:17;5.40;;;3.40;;
5052;SDS011;2545;50.892;5.740;2023-04-15T10:54:47;5.90;;;3.60;;
5052;SDS011;2545;50.892;5.740;2023-04-15T10:57:20;5.17;;;4.17;;
5052;SDS011;2545;50.892;5.740;2023-04-15T11:00:00;7.20;;;4.37;;
5052;SDS011;2545;50.892;5.740;2023-04-15T11:05:03;5.57;;;3.60;;
5052;SDS011;2545;50.892;5.740;2023-04-15T11:07:35;4.47;;;3.70;;
5052;SDS011;2545;50.892;5.740;2023-04-15T11:12:46;6.90;;;2.10;;
5052;SDS011;2545;50.892;5.740;2023-04-15T11:18:11;4.67;;;2.40;;
5052;SDS011;2545;50.892;5.740;2023-04-15T11:20:46;4.73;;;2.30;;
5052;SDS011;2545;50.892;5.740;2023-04-15T11:23:17;10.10;;;2.70;;
5052;SDS011;2545;50.892;5.740;2023-04-15T11:25:43;4.20;;;2.37;;
5052;SDS011;2545;50.892;5.740;2023-04-15T11:28:10;4.23;;;2.17;;
5052;SDS011;2545;50.892;5.740;2023-04-15T11:30:37;5.20;;;2.33;;
5052;SDS011;2545;50.892;5.740;2023-04-15T11:33:04;5.53;;;2.70;;
5052;SDS011;2545;50.892;5.740;2023-04-15T11:35:30;4.50;;;2.60;;
5052;SDS011;2545;50.892;5.740;2023-04-15T11:37:56;5.20;;;2.30;;
5052;SDS011;2545;50.892;5.740;2023-04-15T11:40:23;4.93;;;2.30;;
5052;SDS011;2545;50.892;5.740;2023-04-15T11:43:09;6.40;;;2.57;;
5052;SDS011;2545;50.892;5.740;2023-04-15T11:45:36;7.20;;;2.77;;
5052;SDS011;2545;50.892;5.740;2023-04-15T11:48:09;6.93;;;2.60;;
5052;SDS011;2545;50.892;5.740;2023-04-15T11:50:35;4.43;;;2.30;;
5052;SDS011;2545;50.892;5.740;2023-04-15T11:53:06;5.87;;;2.50;;
5052;SDS011;2545;50.892;5.740;2023-04-15T12:06:03;6.40;;;3.10;;
5052;SDS011;2545;50.892;5.740;2023-04-15T12:11:16;12.43;;;4.20;;
5052;SDS011;2545;50.892;5.740;2023-04-15T12:13:46;6.80;;;3.90;;
5052;SDS011;2545;50.892;5.740;2023-04-15T12:16:15;8.03;;;3.47;;
5052;SDS011;2545;50.892;5.740;2023-04-15T12:18:43;8.97;;;4.33;;
5052;SDS011;2545;50.892;5.740;2023-04-15T12:21:10;6.50;;;3.57;;
5052;SDS011;2545;50.892;5.740;2023-04-15T12:23:36;13.23;;;3.27;;
5052;SDS011;2545;50.892;5.740;2023-04-15T12:26:05;6.00;;;2.87;;
5052;SDS011;2545;50.892;5.740;2023-04-15T12:28:32;6.90;;;3.47;;
5052;SDS011;2545;50.892;5.740;2023-04-15T12:30:59;6.70;;;2.83;;
5052;SDS011;2545;50.892;5.740;2023-04-15T12:33:33;6.13;;;2.87;;
5052;SDS011;2545;50.892;5.740;2023-04-15T12:35:59;8.23;;;3.37;;
5052;SDS011;2545;50.892;5.740;2023-04-15T12:38:25;7.17;;;3.17;;
5052;SDS011;2545;50.892;5.740;2023-04-15T12:40:50;10.00;;;3.40;;
5052;SDS011;2545;50.892;5.740;2023-04-15T12:43:15;7.20;;;3.33;;
5052;SDS011;2545;50.892;5.740;2023-04-15T12:45:41;7.93;;;3.03;;
5052;SDS011;2545;50.892;5.740;2023-04-15T12:48:06;7.10;;;2.80;;
5052;SDS011;2545;50.892;5.740;2023-04-15T12:50:33;6.63;;;2.83;;
5052;SDS011;2545;50.892;5.740;2023-04-15T12:52:59;8.10;;;3.13;;
5052;SDS011;2545;50.892;5.740;2023-04-15T12:55:24;7.97;;;2.77;;
5052;SDS011;2545;50.892;5.740;2023-04-15T12:57:50;7.50;;;3.00;;
5052;SDS011;2545;50.892;5.740;2023-04-15T13:00:16;10.90;;;2.90;;
5052;SDS011;2545;50.892;5.740;2023-04-15T13:02:42;8.50;;;2.73;;
5052;SDS011;2545;50.892;5.740;2023-04-15T13:05:08;6.80;;;2.50;;
5052;SDS011;2545;50.892;5.740;2023-04-15T13:07:33;7.47;;;2.73;;
5052;SDS011;2545;50.892;5.740;2023-04-15T13:09:58;7.73;;;2.53;;
5052;SDS011;2545;50.892;5.740;2023-04-15T13:12:24;10.17;;;3.20;;
5052;SDS011;2545;50.892;5.740;2023-04-15T13:14:51;8.00;;;3.10;;
5052;SDS011;2545;50.892;5.740;2023-04-15T13:17:16;8.90;;;3.20;;
5052;SDS011;2545;50.892;5.740;2023-04-15T13:19:44;7.80;;;3.53;;
5052;SDS011;2545;50.892;5.740;2023-04-15T13:22:09;8.90;;;3.70;;
5052;SDS011;2545;50.892;5.740;2023-04-15T13:24:35;11.77;;;3.53;;
5052;SDS011;2545;50.892;5.740;2023-04-15T13:27:01;6.23;;;2.73;;
5052;SDS011;2545;50.892;5.740;2023-04-15T13:29:28;6.53;;;3.30;;
5052;SDS011;2545;50.892;5.740;2023-04-15T13:31:53;11.27;;;4.53;;
5052;SDS011;2545;50.892;5.740;2023-04-15T13:34:19;8.33;;;3.10;;
5052;SDS011;2545;50.892;5.740;2023-04-15T13:36:44;8.33;;;3.80;;
5052;SDS011;2545;50.892;5.740;2023-04-15T13:39:10;7.63;;;3.20;;
5052;SDS011;2545;50.892;5.740;2023-04-15T13:41:35;8.30;;;4.07;;
5052;SDS011;2545;50.892;5.740;2023-04-15T13:44:01;9.33;;;3.50;;
5052;SDS011;2545;50.892;5.740;2023-04-15T13:46:26;8.53;;;3.97;;
5052;SDS011;2545;50.892;5.740;2023-04-15T13:48:52;5.73;;;2.90;;
5052;SDS011;2545;50.892;5.740;2023-04-15T13:51:17;8.03;;;3.40;;
5052;SDS011;2545;50.892;5.740;2023-04-15T13:53:42;10.20;;;3.50;;
5052;SDS011;2545;50.892;5.740;2023-04-15T13:56:08;6.20;;;3.20;;
5052;SDS011;2545;50.892;5.740;2023-04-15T13:58:35;6.53;;;3.57;;
5052;SDS011;2545;50.892;5.740;2023-04-15T14:01:00;7.70;;;3.47;;
5052;SDS011;2545;50.892;5.740;2023-04-15T14:03:26;8.40;;;3.23;;
5052;SDS011;2545;50.892;5.740;2023-04-15T14:05:51;7.20;;;3.27;;
5052;SDS011;2545;50.892;5.740;2023-04-15T14:08:20;6.93;;;2.80;;
5052;SDS011;2545;50.892;5.740;2023-04-15T14:10:45;8.43;;;3.43;;
5052;SDS011;2545;50.892;5.740;2023-04-15T14:13:12;8.30;;;2.90;;
5052;SDS011;2545;50.892;5.740;2023-04-15T14:15:39;7.97;;;3.17;;
5052;SDS011;2545;50.892;5.740;2023-04-15T14:18:04;7.70;;;3.00;;
5052;SDS011;2545;50.892;5.740;2023-04-15T14:20:30;8.20;;;3.20;;
5052;SDS011;2545;50.892;5.740;2023-04-15T14:22:55;8.33;;;2.60;;
5052;SDS011;2545;50.892;5.740;2023-04-15T14:25:20;7.67;;;2.90;;
5052;SDS011;2545;50.892;5.740;2023-04-15T14:27:46;7.53;;;2.50;;
5052;SDS011;2545;50.892;5.740;2023-04-15T14:30:12;9.30;;;2.70;;
5052;SDS011;2545;50.892;5.740;2023-04-15T14:32:37;10.30;;;3.10;;
5052;SDS011;2545;50.892;5.740;2023-04-15T14:35:03;7.83;;;2.50;;
5052;SDS011;2545;50.892;5.740;2023-04-15T14:37:28;7.60;;;2.23;;
5052;SDS011;2545;50.892;5.740;2023-04-15T14:39:53;8.80;;;2.70;;
5052;SDS011;2545;50.892;5.740;2023-04-15T14:42:19;10.40;;;2.40;;
5052;SDS011;2545;50.892;5.740;2023-04-15T14:44:44;7.70;;;2.10;;
5052;SDS011;2545;50.892;5.740;2023-04-15T14:47:10;8.30;;;2.50;;
5052;SDS011;2545;50.892;5.740;2023-04-15T14:49:35;6.63;;;2.20;;
5052;SDS011;2545;50.892;5.740;2023-04-15T14:52:01;7.20;;;2.60;;
5052;SDS011;2545;50.892;5.740;2023-04-15T14:54:26;9.83;;;2.43;;
5052;SDS011;2545;50.892;5.740;2023-04-15T14:56:51;6.27;;;2.10;;
5052;SDS011;2545;50.892;5.740;2023-04-15T14:59:17;7.20;;;2.67;;
5052;SDS011;2545;50.892;5.740;2023-04-15T15:01:42;7.83;;;2.50;;
5052;SDS011;2545;50.892;5.740;2023-04-15T15:04:08;8.70;;;2.47;;
5052;SDS011;2545;50.892;5.740;2023-04-15T15:06:34;7.30;;;2.47;;
5052;SDS011;2545;50.892;5.740;2023-04-15T15:09:00;13.23;;;3.20;;
5052;SDS011;2545;50.892;5.740;2023-04-15T15:11:26;6.70;;;2.27;;
5052;SDS011;2545;50.892;5.740;2023-04-15T15:13:51;8.50;;;2.90;;
5052;SDS011;2545;50.892;5.740;2023-04-15T15:16:17;8.03;;;2.50;;
5052;SDS011;2545;50.892;5.740;2023-04-15T15:18:42;9.17;;;2.40;;
5052;SDS011;2545;50.892;5.740;2023-04-15T15:21:07;7.30;;;2.70;;
5052;SDS011;2545;50.892;5.740;2023-04-15T15:23:33;5.77;;;2.50;;
5052;SDS011;2545;50.892;5.740;2023-04-15T15:25:58;7.53;;;3.50;;
5052;SDS011;2545;50.892;5.740;2023-04-15T15:28:24;5.00;;;2.63;;
5052;SDS011;2545;50.892;5.740;2023-04-15T15:30:49;5.33;;;2.80;;